Time;durP1;ratioP1;P1;durP2;ratioP2;P2;SDS_P1;SDS_P2;PMS_P1;PMS_P2;Temp;Humidity;BMP_temperature;BMP_pressure;BME280_temperature;BME280_humidity;BME280_pressure;Samples;Min_cycle;Max_cycle;Signal;HPM_P1;HPM_P2
2024/01/06 00:00:27;;;;;;;15.52;13.07;;;;;;;0.43;100.00;100442.22;5041377;28;20048;-80
2024/01/06 00:02:54;;;;;;;14.70;11.82;;;;;;;0.49;100.00;100432.09;5048822;28;20434;-81
2024/01/06 00:05:21;;;;;;;14.40;11.45;;;;;;;0.51;100.00;100443.38;5045773;28;20466;-80
2024/01/06 00:07:49;;;;;;;15.27;12.95;;;;;;;0.53;100.00;100446.91;5026868;28;20057;-80
2024/01/06 00:10:17;;;;;;;19.63;12.98;;;;;;;0.53;100.00;100449.50;5023295;28;20053;-81
2024/01/06 00:12:45;;;;;;;18.75;12.77;;;;;;;0.50;100.00;100454.59;5045702;28;20056;-80
2024/01/06 00:15:12;;;;;;;19.58;13.57;;;;;;;0.48;100.00;100451.94;5017595;28;20049;-81
2024/01/06 00:17:40;;;;;;;13.32;11.60;;;;;;;0.47;100.00;100460.53;5035368;28;20045;-80
2024/01/06 00:20:08;;;;;;;16.00;11.63;;;;;;;0.48;100.00;100466.63;5034681;28;20057;-81
2024/01/06 00:22:36;;;;;;;14.15;11.75;;;;;;;0.46;100.00;100463.97;5039696;28;20460;-80
2024/01/06 00:25:03;;;;;;;15.38;11.88;;;;;;;0.46;100.00;100456.19;5053134;28;20052;-81
2024/01/06 00:27:31;;;;;;;15.48;11.55;;;;;;;0.46;100.00;100463.97;5043715;28;20037;-80
2024/01/06 00:29:58;;;;;;;15.55;12.07;;;;;;;0.46;100.00;100455.31;4987874;28;20430;-80
2024/01/06 00:32:26;;;;;;;15.20;11.40;;;;;;;0.45;100.00;100457.00;5018860;28;20057;-80
2024/01/06 00:34:54;;;;;;;15.63;11.35;;;;;;;0.44;100.00;100456.97;5044882;28;20045;-80
2024/01/06 00:37:21;;;;;;;14.40;10.63;;;;;;;0.41;100.00;100462.91;5025893;28;20053;-80
2024/01/06 00:39:49;;;;;;;15.82;10.68;;;;;;;0.39;100.00;100457.66;5039674;28;20068;-80
2024/01/06 00:42:16;;;;;;;14.48;10.82;;;;;;;0.37;100.00;100474.84;5040074;28;20061;-80
2024/01/06 00:44:45;;;;;;;12.45;10.68;;;;;;;0.36;100.00;100480.88;5040218;28;20533;-80
2024/01/06 00:47:12;;;;;;;13.63;11.05;;;;;;;0.37;100.00;100498.19;4996994;28;20061;-80
2024/01/06 00:49:42;;;;;;;12.18;9.48;;;;;;;0.36;100.00;100501.63;5047338;28;20556;-80
2024/01/06 00:52:09;;;;;;;11.38;9.57;;;;;;;0.34;100.00;100508.47;5037373;28;20049;-81
2024/01/06 00:54:37;;;;;;;15.30;10.98;;;;;;;0.35;100.00;100517.09;5008271;28;20053;-81
2024/01/06 00:57:04;;;;;;;15.27;12.15;;;;;;;0.37;100.00;100513.75;5043638;28;20056;-81
2024/01/06 00:59:32;;;;;;;15.13;11.30;;;;;;;0.37;100.00;100512.88;5045340;28;20056;-80
2024/01/06 01:01:59;;;;;;;13.27;10.35;;;;;;;0.39;100.00;100522.47;5016746;28;20052;-80
2024/01/06 01:04:27;;;;;;;12.07;9.70;;;;;;;0.41;100.00;100532.03;5028917;28;20033;-80
2024/01/06 01:06:54;;;;;;;14.10;10.75;;;;;;;0.35;100.00;100533.53;5049147;28;20053;-80
2024/01/06 01:09:22;;;;;;;12.00;9.13;;;;;;;0.31;100.00;100536.84;5033848;28;20060;-81
2024/01/06 01:11:49;;;;;;;12.25;9.30;;;;;;;0.28;100.00;100544.47;5030885;28;20049;-80
2024/01/06 01:14:18;;;;;;;11.13;9.13;;;;;;;0.25;100.00;100544.38;5030386;28;20060;-82
2024/01/06 01:16:46;;;;;;;12.57;10.15;;;;;;;0.27;100.00;100554.81;5015833;28;20060;-81
2024/01/06 01:19:14;;;;;;;12.70;9.68;;;;;;;0.28;100.00;100548.78;5019788;28;20052;-82
2024/01/06 01:21:41;;;;;;;11.68;9.50;;;;;;;0.27;100.00;100562.59;5042331;28;20063;-81
2024/01/06 01:24:09;;;;;;;11.45;8.70;;;;;;;0.24;100.00;100559.88;5040520;28;20041;-82
2024/01/06 01:26:36;;;;;;;10.45;8.98;;;;;;;0.23;100.00;100553.81;5008044;28;20144;-80
2024/01/06 01:29:04;;;;;;;11.20;9.88;;;;;;;0.23;100.00;100560.66;5049720;28;20057;-81
2024/01/06 01:31:32;;;;;;;10.77;9.15;;;;;;;0.19;100.00;100557.97;4993178;28;21459;-81
2024/01/06 01:33:59;;;;;;;11.25;9.70;;;;;;;0.23;100.00;100558.06;5040994;28;20042;-81
2024/01/06 01:36:27;;;;;;;13.15;9.48;;;;;;;0.21;100.00;100563.22;5038541;28;20064;-81
2024/01/06 01:38:54;;;;;;;12.32;9.75;;;;;;;0.17;100.00;100561.31;5047329;28;20049;-81
2024/01/06 01:41:22;;;;;;;13.20;10.05;;;;;;;0.17;100.00;100571.66;5037047;28;20057;-80
2024/01/06 01:43:57;;;;;;;12.00;10.15;;;;;;;0.18;100.00;100576.91;5043626;28;20375;-81
2024/01/06 01:46:26;;;;;;;13.95;9.82;;;;;;;0.17;100.00;100574.25;5032456;28;20076;-81
2024/01/06 01:48:55;;;;;;;15.10;10.57;;;;;;;0.19;100.00;100581.31;5017966;28;20040;-81
2024/01/06 01:51:26;;;;;;;14.40;10.10;;;;;;;0.15;100.00;100583.69;5025773;28;20053;-80
2024/01/06 01:53:53;;;;;;;;;;;;;;;0.11;100.00;100592.16;5046606;28;20037;-80
2024/01/06 01:56:21;;;;;;;10.63;9.38;;;;;;;0.05;100.00;100590.19;5038285;28;19928;-81
2024/01/06 01:58:49;;;;;;;12.15;9.05;;;;;;;0.01;100.00;100592.63;5044487;28;20056;-80
2024/01/06 02:01:18;;;;;;;12.85;10.02;;;;;;;-0.01;100.00;100596.00;5051551;28;20059;-80
2024/01/06 02:03:48;;;;;;;11.55;10.00;;;;;;;-0.01;100.00;100597.72;5001543;28;20061;-80
2024/01/06 02:06:16;;;;;;;13.15;9.63;;;;;;;-0.02;100.00;100599.44;5039241;28;20450;-81
2024/01/06 02:08:43;;;;;;;11.82;9.82;;;;;;;-0.05;100.00;100598.41;5044970;28;20045;-80
2024/01/06 02:11:11;;;;;;;12.98;9.70;;;;;;;-0.05;100.00;100599.31;5033800;28;20057;-81
2024/01/06 02:13:38;;;;;;;12.00;9.60;;;;;;;-0.07;100.00;100607.84;5039615;28;20402;-81
2024/01/06 02:16:06;;;;;;;12.50;9.35;;;;;;;-0.09;100.00;100609.47;5046674;28;20053;-81
2024/01/06 02:18:33;;;;;;;14.27;9.50;;;;;;;-0.09;100.00;100619.84;5002005;28;21866;-81
2024/01/06 02:21:02;;;;;;;11.68;8.65;;;;;;;-0.11;100.00;100613.72;5022159;28;20049;-80
2024/01/06 02:23:30;;;;;;;12.40;8.70;;;;;;;-0.16;100.00;100618.69;5037179;28;20640;-81
2024/01/06 02:25:57;;;;;;;13.23;8.85;;;;;;;-0.18;100.00;100622.91;5073518;28;20038;-81
2024/01/06 02:28:25;;;;;;;11.95;9.68;;;;;;;-0.20;100.00;100629.72;5031231;28;20083;-82
2024/01/06 02:30:52;;;;;;;10.82;8.10;;;;;;;-0.22;100.00;100628.78;5051339;28;20049;-81
2024/01/06 02:33:23;;;;;;;11.68;8.95;;;;;;;-0.25;100.00;100620.88;5031873;28;20049;-81
2024/01/06 02:35:51;;;;;;;9.68;8.43;;;;;;;-0.25;100.00;100616.56;5049187;28;20406;-81
2024/01/06 02:38:18;;;;;;;11.00;9.32;;;;;;;-0.25;100.00;100623.47;5038254;28;20050;-81
2024/01/06 02:40:45;;;;;;;14.25;10.25;;;;;;;-0.25;100.00;100637.28;5043504;28;20041;-81
2024/01/06 02:43:13;;;;;;;11.48;8.98;;;;;;;-0.28;100.00;100639.75;5042457;28;20040;-82
2024/01/06 02:45:40;;;;;;;11.32;9.05;;;;;;;-0.29;100.00;100645.75;5047455;28;20045;-80
2024/01/06 02:48:08;;;;;;;13.43;8.55;;;;;;;-0.28;100.00;100654.41;5051659;28;20049;-81
2024/01/06 02:50:36;;;;;;;13.50;8.90;;;;;;;-0.31;100.00;100651.69;5004612;28;20490;-81
2024/01/06 02:53:03;;;;;;;13.57;9.57;;;;;;;-0.32;100.00;100660.25;5044108;28;20445;-80
2024/01/06 02:55:31;;;;;;;15.88;10.00;;;;;;;-0.31;100.00;100656.88;5048402;28;20044;-80
2024/01/06 02:57:58;;;;;;;12.85;9.95;;;;;;;-0.28;100.00;100651.84;5049541;28;20044;-81
2024/01/06 03:00:25;;;;;;;12.75;9.80;;;;;;;-0.27;100.00;100653.59;5042412;28;20674;-81
2024/01/06 03:02:53;;;;;;;13.90;10.20;;;;;;;-0.25;100.00;100665.78;5059341;28;20040;-80
2024/01/06 03:05:21;;;;;;;15.43;10.68;;;;;;;-0.26;100.00;100655.38;5034935;28;20045;-81
2024/01/06 03:07:48;;;;;;;15.82;10.43;;;;;;;-0.26;100.00;100656.25;5054588;28;20057;-80
2024/01/06 03:10:16;;;;;;;12.05;10.30;;;;;;;-0.27;100.00;100654.47;5033675;28;20425;-80
2024/01/06 03:12:43;;;;;;;16.90;11.63;;;;;;;-0.28;100.00;100667.38;5045693;28;20081;-80
2024/01/06 03:15:11;;;;;;;15.40;10.98;;;;;;;-0.26;100.00;100665.72;5038916;28;20033;-81
2024/01/06 03:17:39;;;;;;;19.35;11.48;;;;;;;-0.24;100.00;100672.75;5050147;28;20045;-80
2024/01/06 03:20:07;;;;;;;12.15;8.60;;;;;;;-0.26;100.00;100670.91;5051569;28;20061;-80
2024/01/06 03:22:35;;;;;;;13.75;11.02;;;;;;;-0.28;100.00;100675.13;5011905;28;20045;-80
2024/01/06 03:25:03;;;;;;;13.82;11.27;;;;;;;-0.25;100.00;100667.47;5034091;28;20041;-80
2024/01/06 03:27:34;;;;;;;18.60;13.15;;;;;;;-0.20;100.00;100676.34;5043961;28;20413;-80
2024/01/06 03:30:01;;;;;;;18.38;13.98;;;;;;;-0.18;100.00;100679.00;5043873;28;20425;-80
2024/01/06 03:32:29;;;;;;;22.55;14.00;;;;;;;-0.14;100.00;100686.97;5049003;28;20049;-80
2024/01/06 03:34:57;;;;;;;17.13;13.60;;;;;;;-0.10;100.00;100688.88;5047868;28;20049;-81
2024/01/06 03:37:25;;;;;;;18.70;12.82;;;;;;;-0.09;100.00;100703.59;5024506;28;20041;-81
2024/01/06 03:39:52;;;;;;;14.75;11.32;;;;;;;-0.15;100.00;100694.66;5020535;28;20506;-80
2024/01/06 03:42:20;;;;;;;16.90;13.05;;;;;;;-0.15;100.00;100705.03;5048545;28;20154;-81
2024/01/06 03:44:47;;;;;;;17.88;12.32;;;;;;;-0.15;100.00;100693.00;5038418;28;20049;-80
2024/01/06 03:47:15;;;;;;;17.50;11.32;;;;;;;-0.15;100.00;100711.13;5033304;28;20053;-81
2024/01/06 03:49:42;;;;;;;13.07;9.57;;;;;;;-0.19;100.00;100704.00;5049580;28;20045;-80
2024/01/06 03:52:10;;;;;;;16.70;11.85;;;;;;;-0.18;100.00;100700.63;5041143;28;20425;-82
2024/01/06 03:54:37;;;;;;;15.23;11.68;;;;;;;-0.16;100.00;100711.03;5014938;28;20898;-80
2024/01/06 03:57:05;;;;;;;15.95;12.40;;;;;;;-0.17;100.00;100712.75;5047755;28;20509;-80
2024/01/06 03:59:32;;;;;;;15.55;11.93;;;;;;;-0.16;100.00;100706.75;5015077;28;20544;-81
2024/01/06 04:02:00;;;;;;;19.10;12.15;;;;;;;-0.14;100.00;100712.00;5030056;28;20549;-81
2024/01/06 04:04:28;;;;;;;17.80;12.15;;;;;;;-0.13;100.00;100714.66;5035810;28;20064;-81
2024/01/06 04:06:55;;;;;;;16.60;11.68;;;;;;;-0.11;100.00;100712.16;5049020;28;20044;-81
2024/01/06 04:09:23;;;;;;;17.58;12.98;;;;;;;-0.13;100.00;100719.84;5017150;28;20413;-81
2024/01/06 04:11:50;;;;;;;19.10;12.88;;;;;;;-0.12;100.00;100728.50;5026290;28;20056;-80
2024/01/06 04:14:18;;;;;;;15.25;10.25;;;;;;;-0.18;100.00;100726.50;5040209;28;20060;-81
2024/01/06 04:16:45;;;;;;;15.63;12.18;;;;;;;-0.22;100.00;100733.25;5036557;28;20048;-81
2024/01/06 04:19:14;;;;;;;15.10;11.52;;;;;;;-0.23;100.00;100726.31;5048235;28;20049;-80
2024/01/06 04:21:42;;;;;;;15.25;11.77;;;;;;;-0.21;100.00;100731.53;5047040;28;20128;-81
2024/01/06 04:24:10;;;;;;;17.10;11.73;;;;;;;-0.22;100.00;100727.19;5020954;28;20080;-80
2024/01/06 04:26:37;;;;;;;17.40;13.45;;;;;;;-0.22;100.00;100734.97;5039205;28;20844;-80
2024/01/06 04:29:05;;;;;;;15.20;12.13;;;;;;;-0.19;100.00;100745.44;5049416;28;20057;-80
2024/01/06 04:31:33;;;;;;;17.00;12.20;;;;;;;-0.19;100.00;100750.63;5040256;28;20046;-80
2024/01/06 04:34:01;;;;;;;15.23;11.82;;;;;;;-0.21;100.00;100747.09;5076100;28;20045;-80
2024/01/06 04:36:29;;;;;;;15.38;12.35;;;;;;;-0.20;100.00;100751.47;5035497;28;20068;-80
2024/01/06 04:38:56;;;;;;;13.70;11.48;;;;;;;-0.20;100.00;100765.28;5005009;28;20044;-80
2024/01/06 04:41:24;;;;;;;15.70;11.15;;;;;;;-0.20;100.00;100760.09;5041887;28;20053;-81
2024/01/06 04:43:51;;;;;;;14.18;10.93;;;;;;;-0.21;100.00;100754.84;5039818;28;20438;-80
2024/01/06 04:46:19;;;;;;;12.25;9.95;;;;;;;-0.22;100.00;100772.09;5032261;28;20060;-81
2024/01/06 04:48:47;;;;;;;14.45;10.40;;;;;;;-0.21;100.00;100765.22;5038883;28;20045;-80
2024/01/06 04:51:15;;;;;;;13.05;10.70;;;;;;;-0.19;100.00;100781.69;5037709;28;20075;-81
2024/01/06 04:53:43;;;;;;;14.60;10.63;;;;;;;-0.18;100.00;100777.44;5032142;28;20037;-80
2024/01/06 04:56:10;;;;;;;13.40;10.32;;;;;;;-0.18;100.00;100780.91;5015659;28;20060;-81
2024/01/06 04:58:37;;;;;;;11.20;9.52;;;;;;;-0.17;100.00;100785.28;5015275;28;20071;-81
2024/01/06 05:01:05;;;;;;;12.93;10.32;;;;;;;-0.14;100.00;100784.53;5080041;28;20048;-81
2024/01/06 05:03:33;;;;;;;13.98;10.43;;;;;;;-0.16;100.00;100781.84;5033440;28;20056;-81
2024/01/06 05:06:01;;;;;;;13.82;10.65;;;;;;;-0.15;100.00;100799.19;5060663;28;20057;-81
2024/01/06 05:08:30;;;;;;;15.15;10.38;;;;;;;-0.17;100.00;100780.09;5041088;28;20365;-81
2024/01/06 05:11:12;;;;;;;12.00;10.35;;;;;;;-0.16;100.00;100787.03;5008484;28;20041;-82
2024/01/06 05:13:39;;;;;;;13.23;10.05;;;;;;;-0.13;100.00;100797.53;5021145;28;20056;-79
2024/01/06 05:16:07;;;;;;;13.05;10.13;;;;;;;-0.11;100.00;100805.41;5031241;28;20053;-80
2024/01/06 05:22:35;;;;;;;12.65;9.88;;;;;;;-0.05;100.00;100813.44;5021692;28;20053;-80
2024/01/06 05:25:03;;;;;;;12.75;9.65;;;;;;;-0.05;100.00;100818.63;5038351;28;20052;-81
2024/01/06 05:27:31;;;;;;;14.15;10.40;;;;;;;-0.03;100.00;100823.03;5016567;28;20052;-80
2024/01/06 05:29:58;;;;;;;12.18;9.63;;;;;;;-0.04;100.00;100823.88;5040633;28;20043;-80
2024/01/06 05:32:26;;;;;;;12.88;9.85;;;;;;;-0.03;100.00;100825.63;5047493;28;20033;-80
2024/01/06 05:34:54;;;;;;;11.77;9.88;;;;;;;-0.04;100.00;100829.06;5037816;28;20053;-81
2024/01/06 05:37:21;;;;;;;13.95;11.02;;;;;;;-0.04;100.00;100836.81;5040331;28;20040;-80
2024/01/06 05:39:49;;;;;;;16.58;10.27;;;;;;;-0.03;100.00;100835.13;5041555;28;20051;-81
2024/01/06 05:42:16;;;;;;;14.77;10.60;;;;;;;-0.03;100.00;100838.59;5013162;28;20056;-80
2024/01/06 05:44:44;;;;;;;13.00;11.20;;;;;;;-0.01;100.00;100834.34;5039566;28;20044;-81
2024/01/06 05:47:11;;;;;;;14.52;9.40;;;;;;;-0.01;100.00;100844.72;5027105;28;20550;-80
2024/01/06 05:49:43;;;;;;;14.18;10.32;;;;;;;0.02;100.00;100843.09;5039174;28;20064;-81
2024/01/06 05:52:10;;;;;;;12.80;10.80;;;;;;;0.02;100.00;100840.50;5040470;28;20418;-80
2024/01/06 05:54:44;;;;;;;11.95;10.23;;;;;;;0.01;100.00;100846.50;5041812;28;20068;-80
2024/01/06 05:57:12;;;;;;;12.73;10.27;;;;;;;-0.01;100.00;100855.09;5009766;28;20044;-81
2024/01/06 05:59:40;;;;;;;12.85;10.15;;;;;;;-0.02;100.00;100858.50;5054622;28;20498;-82
2024/01/06 06:02:07;;;;;;;12.93;9.65;;;;;;;0.00;100.00;100871.53;5056140;28;20075;-81
2024/01/06 06:04:35;;;;;;;16.50;10.48;;;;;;;0.02;100.00;100879.34;5041119;28;20052;-80
2024/01/06 06:07:03;;;;;;;12.57;9.80;;;;;;;0.04;100.00;100877.72;5045850;28;20052;-80
2024/01/06 06:09:31;;;;;;;12.75;9.55;;;;;;;0.03;100.00;100876.84;5029098;28;20045;-80
2024/01/06 06:12:01;;;;;;;11.68;9.57;;;;;;;0.06;100.00;100896.81;5046757;28;20057;-81
2024/01/06 06:14:28;;;;;;;11.35;9.98;;;;;;;0.07;100.00;100894.28;5030069;28;20057;-80
2024/01/06 06:16:56;;;;;;;11.02;9.63;;;;;;;0.09;100.00;100902.16;5034661;28;20064;-80
2024/01/06 06:19:24;;;;;;;13.27;10.32;;;;;;;0.08;100.00;100902.97;5029288;28;20053;-80
2024/01/06 06:21:52;;;;;;;12.65;10.45;;;;;;;0.10;100.00;100916.91;5021075;28;20076;-81
2024/01/06 06:24:20;;;;;;;12.77;10.60;;;;;;;0.13;100.00;100922.19;5039500;28;20049;-80
2024/01/06 06:26:47;;;;;;;12.30;10.80;;;;;;;0.16;100.00;100923.22;5015390;28;20038;-81
2024/01/06 06:29:15;;;;;;;15.38;11.60;;;;;;;0.17;100.00;100921.53;5011687;28;20425;-80
2024/01/06 06:31:44;;;;;;;13.88;11.13;;;;;;;0.18;100.00;100934.56;5018667;28;20049;-81
2024/01/06 06:34:12;;;;;;;13.27;11.15;;;;;;;0.19;100.00;100930.28;5028918;28;20524;-80
2024/01/06 06:36:40;;;;;;;14.57;11.55;;;;;;;0.21;100.00;100944.19;5033632;28;20048;-81
2024/01/06 06:39:08;;;;;;;14.90;11.70;;;;;;;0.23;100.00;100937.38;5035837;28;20064;-80
2024/01/06 06:41:36;;;;;;;14.32;11.25;;;;;;;0.23;100.00;100947.75;5028328;28;20406;-80
2024/01/06 06:44:04;;;;;;;13.10;11.15;;;;;;;0.25;100.00;100953.88;5007797;28;20053;-80
2024/01/06 06:46:31;;;;;;;14.20;11.02;;;;;;;0.25;100.00;100959.06;5046157;28;20061;-80
2024/01/06 06:48:59;;;;;;;12.77;10.93;;;;;;;0.25;100.00;100966.84;5035530;28;20045;-80
2024/01/06 06:51:27;;;;;;;15.35;11.88;;;;;;;0.27;100.00;100977.28;5042607;28;20052;-80
2024/01/06 06:53:55;;;;;;;17.20;12.18;;;;;;;0.28;100.00;100972.16;5027282;28;20410;-80
2024/01/06 06:56:22;;;;;;;16.48;12.18;;;;;;;0.29;100.00;100973.94;5045048;28;20604;-80
2024/01/06 06:58:50;;;;;;;16.63;12.63;;;;;;;0.28;100.00;100990.28;5007404;28;20449;-80
2024/01/06 07:01:18;;;;;;;14.20;12.43;;;;;;;0.26;100.00;100981.56;5037163;28;20053;-80
2024/01/06 07:03:45;;;;;;;16.45;13.65;;;;;;;0.26;100.00;100978.97;5034660;28;20486;-80
2024/01/06 07:06:13;;;;;;;17.10;14.15;;;;;;;0.27;100.00;100985.94;5044954;28;20052;-79
2024/01/06 07:08:41;;;;;;;17.95;14.25;;;;;;;0.27;100.00;100985.06;5035434;28;20071;-80
2024/01/06 07:11:11;;;;;;;17.30;14.20;;;;;;;0.27;100.00;100993.72;5038400;28;20512;-79
2024/01/06 07:13:39;;;;;;;17.70;14.15;;;;;;;0.28;100.00;100998.06;5046714;28;20056;-80
2024/01/06 07:16:07;;;;;;;18.08;15.55;;;;;;;0.31;100.00;101002.53;5017772;28;20049;-81
2024/01/06 07:18:45;;;;;;;17.50;14.05;;;;;;;0.32;100.00;101007.78;5043150;28;20041;-81
2024/01/06 07:21:13;;;;;;;19.75;15.68;;;;;;;0.34;100.00;101010.44;5016791;28;20056;-81
2024/01/06 07:23:42;;;;;;;19.88;15.95;;;;;;;0.35;100.00;101020.00;5051253;28;20052;-81
2024/01/06 07:26:10;;;;;;;21.25;16.90;;;;;;;0.35;100.00;101026.06;5024693;28;20056;-81
2024/01/06 07:28:37;;;;;;;21.63;16.77;;;;;;;0.36;100.00;101021.78;5048555;28;20056;-80
2024/01/06 07:31:04;;;;;;;23.95;16.63;;;;;;;0.36;100.00;101027.84;5017987;28;20734;-80
2024/01/06 07:33:33;;;;;;;21.48;17.27;;;;;;;0.36;100.00;101037.34;5051499;28;20071;-80
2024/01/06 07:36:00;;;;;;;23.52;16.50;;;;;;;0.35;100.00;101036.44;5024145;28;20059;-80
2024/01/06 07:38:30;;;;;;;22.20;16.50;;;;;;;0.34;100.00;101044.13;5021069;28;20521;-80
2024/01/06 07:40:58;;;;;;;18.17;15.80;;;;;;;0.34;100.00;101047.63;5012355;28;20052;-80
2024/01/06 07:43:26;;;;;;;22.20;17.02;;;;;;;0.34;100.00;101049.31;5049325;28;20057;-80
2024/01/06 07:45:53;;;;;;;19.85;17.00;;;;;;;0.33;100.00;101050.16;5046640;28;20060;-80
2024/01/06 07:48:21;;;;;;;22.55;16.80;;;;;;;0.33;100.00;101053.63;5020128;28;20438;-80
2024/01/06 07:50:49;;;;;;;18.58;15.27;;;;;;;0.33;100.00;101064.00;5036769;28;20524;-81
2024/01/06 07:53:17;;;;;;;20.38;16.60;;;;;;;0.32;100.00;101063.91;5034550;28;20057;-80
2024/01/06 07:55:45;;;;;;;19.85;15.45;;;;;;;0.32;100.00;101069.09;5029500;28;20053;-80
2024/01/06 07:58:13;;;;;;;18.70;15.32;;;;;;;0.31;100.00;101070.81;5024110;28;20601;-80
2024/01/06 08:00:40;;;;;;;21.88;16.45;;;;;;;0.32;100.00;101071.69;5049694;28;20045;-80
2024/01/06 08:03:08;;;;;;;22.63;16.40;;;;;;;0.33;100.00;101073.47;5018245;28;20688;-80
2024/01/06 08:05:35;;;;;;;20.52;16.65;;;;;;;0.33;100.00;101073.47;5049188;28;20524;-81
2024/01/06 08:08:04;;;;;;;20.48;15.82;;;;;;;0.34;100.00;101081.34;5030468;28;20048;-80
2024/01/06 08:10:31;;;;;;;18.52;15.30;;;;;;;0.36;100.00;101077.13;5038754;28;20049;-80
2024/01/06 08:12:59;;;;;;;18.83;15.15;;;;;;;0.37;100.00;101090.97;5040166;28;20048;-80
2024/01/06 08:15:26;;;;;;;22.40;16.50;;;;;;;0.38;100.00;101085.84;5048422;28;20075;-80
2024/01/06 08:17:54;;;;;;;19.08;15.10;;;;;;;0.38;100.00;101083.25;5022720;28;20059;-80
2024/01/06 08:20:21;;;;;;;21.45;15.45;;;;;;;0.38;100.00;101096.22;5043693;28;20064;-80
2024/01/06 08:22:49;;;;;;;22.98;15.10;;;;;;;0.36;100.00;101105.63;5038528;28;20387;-80
2024/01/06 08:25:17;;;;;;;18.05;14.00;;;;;;;0.35;100.00;101105.56;5050235;28;20518;-80
2024/01/06 08:27:44;;;;;;;18.75;15.48;;;;;;;0.36;100.00;101104.75;5031997;28;20049;-79
2024/01/06 08:30:12;;;;;;;24.83;16.88;;;;;;;0.35;100.00;101111.63;5041176;28;20061;-79
2024/01/06 08:32:40;;;;;;;18.80;15.23;;;;;;;0.37;100.00;101111.69;5051521;28;20053;-79
2024/01/06 08:35:08;;;;;;;19.83;15.35;;;;;;;0.39;100.00;101123.03;5045055;28;20046;-81
2024/01/06 08:37:35;;;;;;;19.98;16.25;;;;;;;0.38;100.00;101113.50;5031187;28;23189;-80
2024/01/06 08:40:04;;;;;;;19.80;15.50;;;;;;;0.38;100.00;101129.94;5047691;28;20045;-80
2024/01/06 08:42:32;;;;;;;18.30;14.23;;;;;;;0.39;100.00;101130.81;5004670;28;20048;-80
2024/01/06 08:45:00;;;;;;;22.23;14.60;;;;;;;0.39;100.00;101134.28;5035306;28;20057;-81
2024/01/06 08:47:28;;;;;;;20.15;14.27;;;;;;;0.39;100.00;101142.06;5037524;28;20048;-81
2024/01/06 08:49:55;;;;;;;16.83;13.63;;;;;;;0.39;100.00;101142.06;5018910;28;20061;-81
2024/01/06 08:52:23;;;;;;;18.58;14.10;;;;;;;0.39;100.00;101157.63;5037674;28;20048;-80
2024/01/06 08:54:50;;;;;;;20.13;14.63;;;;;;;0.42;100.00;101163.75;5021233;28;20492;-79
2024/01/06 08:57:18;;;;;;;19.30;14.05;;;;;;;0.41;100.00;101169.78;5039396;28;20485;-80
2024/01/06 08:59:45;;;;;;;19.38;13.65;;;;;;;0.41;100.00;101182.75;5045345;28;20103;-79
2024/01/06 09:02:13;;;;;;;19.55;14.13;;;;;;;0.40;100.00;101176.69;5046928;28;20045;-79
2024/01/06 09:04:40;;;;;;;17.02;12.88;;;;;;;0.41;100.00;101182.75;5012117;28;20417;-79
2024/01/06 09:07:08;;;;;;;16.77;12.68;;;;;;;0.41;100.00;101175.84;5041790;28;20045;-78
2024/01/06 09:09:35;;;;;;;17.05;12.68;;;;;;;0.43;100.00;101186.28;5039400;28;20068;-81
2024/01/06 09:12:03;;;;;;;18.13;13.32;;;;;;;0.44;100.00;101195.88;5040641;28;20049;-80
2024/01/06 09:14:31;;;;;;;18.75;13.32;;;;;;;0.42;100.00;101193.19;5038986;28;20049;-81
2024/01/06 09:16:58;;;;;;;19.67;13.70;;;;;;;0.43;100.00;101191.47;5044503;28;20057;-79
2024/01/06 09:19:28;;;;;;;16.98;12.95;;;;;;;0.44;100.00;101190.69;4998859;28;20049;-79
2024/01/06 09:21:55;;;;;;;19.95;13.18;;;;;;;0.44;100.00;101195.88;5043401;28;20053;-79
2024/01/06 09:24:23;;;;;;;22.25;13.13;;;;;;;0.43;100.00;101196.66;5044494;28;20056;-79
2024/01/06 09:26:51;;;;;;;13.00;11.60;;;;;;;0.42;100.00;101198.38;5035633;28;20065;-80
2024/01/06 09:29:18;;;;;;;14.90;11.85;;;;;;;0.38;100.00;101196.44;5042375;28;20067;-80
2024/01/06 09:31:46;;;;;;;13.20;11.30;;;;;;;0.37;100.00;101195.53;5077182;28;20074;-80
2024/01/06 09:34:13;;;;;;;14.90;11.40;;;;;;;0.38;100.00;101227.56;5020198;28;20049;-80
2024/01/06 09:36:41;;;;;;;10.70;8.80;;;;;;;0.36;100.00;101198.97;5043203;28;20040;-79
2024/01/06 09:39:08;;;;;;;13.13;9.43;;;;;;;0.36;100.00;101208.44;5026472;28;20064;-79
2024/01/06 09:41:36;;;;;;;10.68;9.35;;;;;;;0.36;100.00;101218.81;5019610;28;20047;-80
2024/01/06 09:44:03;;;;;;;12.38;10.20;;;;;;;0.37;100.00;101223.19;5029903;28;20414;-79
2024/01/06 09:46:31;;;;;;;11.70;8.95;;;;;;;0.39;100.00;101222.44;5011075;28;20055;-79
2024/01/06 09:48:59;;;;;;;9.80;8.48;;;;;;;0.41;100.00;101235.47;5019704;28;20044;-80
2024/01/06 09:51:28;;;;;;;10.55;7.90;;;;;;;0.44;100.00;101234.75;5001305;28;20060;-79
2024/01/06 09:54:07;;;;;;;11.60;8.10;;;;;;;0.39;100.00;101234.50;5015253;28;20045;-79
2024/01/06 09:56:35;;;;;;;10.45;8.82;;;;;;;0.38;100.00;101256.97;5034930;28;20054;-79
2024/01/06 09:59:03;;;;;;;9.07;7.75;;;;;;;0.37;100.00;101231.84;5018632;28;20065;-79
2024/01/06 10:01:30;;;;;;;10.65;8.50;;;;;;;0.42;100.00;101236.34;5044384;28;20041;-80
2024/01/06 10:03:58;;;;;;;10.48;8.85;;;;;;;0.43;100.00;101241.63;5027556;28;20041;-80
2024/01/06 10:06:26;;;;;;;11.95;9.07;;;;;;;0.46;100.00;101248.69;5016135;28;20810;-81
2024/01/06 10:08:55;;;;;;;11.90;9.23;;;;;;;0.48;100.00;101257.44;5021895;28;20616;-80
2024/01/06 10:11:22;;;;;;;10.57;8.65;;;;;;;0.48;100.00;101255.72;5034966;28;20608;-79
2024/01/06 10:13:51;;;;;;;11.70;9.02;;;;;;;0.49;100.00;101269.56;5036199;28;20045;-80
2024/01/06 10:16:19;;;;;;;11.10;8.82;;;;;;;0.46;100.00;101261.66;5022941;28;20049;-79
2024/01/06 10:18:47;;;;;;;12.52;9.40;;;;;;;0.45;100.00;101265.94;5032740;28;20685;-79
2024/01/06 10:21:21;;;;;;;10.02;8.80;;;;;;;0.42;100.00;101272.66;5018630;28;20036;-80
2024/01/06 10:23:50;;;;;;;10.65;8.52;;;;;;;0.39;100.00;101268.22;5025800;28;20049;-79
2024/01/06 10:26:18;;;;;;;10.85;8.90;;;;;;;0.39;100.00;101266.50;5054997;28;20057;-80
2024/01/06 10:28:48;;;;;;;12.82;8.90;;;;;;;0.40;100.00;101272.59;5027343;28;20391;-79
2024/01/06 10:31:17;;;;;;;11.35;9.30;;;;;;;0.43;100.00;101272.75;5037964;28;20405;-80
2024/01/06 10:33:45;;;;;;;9.45;8.05;;;;;;;0.45;100.00;101275.41;5025900;28;20060;-81
2024/01/06 10:36:15;;;;;;;9.35;8.27;;;;;;;0.45;100.00;101278.91;5032449;28;20045;-80
2024/01/06 10:38:45;;;;;;;15.20;9.25;;;;;;;0.47;100.00;101278.97;5040326;28;20053;-78
2024/01/06 10:41:15;;;;;;;9.50;8.35;;;;;;;0.49;100.00;101287.72;5046407;28;20045;-78
2024/01/06 10:43:43;;;;;;;12.23;9.03;;;;;;;0.47;100.00;101289.34;5011870;28;20344;-78
2024/01/06 10:46:12;;;;;;;10.88;8.82;;;;;;;0.50;100.00;101279.16;5042637;28;20053;-76
2024/01/06 10:48:43;;;;;;;11.55;9.15;;;;;;;0.52;100.00;101280.13;5016593;28;20076;-77
2024/01/06 10:51:13;;;;;;;11.57;9.63;;;;;;;0.55;100.00;101278.56;5030821;28;20410;-78
2024/01/06 10:53:42;;;;;;;12.63;10.13;;;;;;;0.58;100.00;101289.06;4991028;28;20060;-78
2024/01/06 10:56:10;;;;;;;10.88;9.45;;;;;;;0.60;100.00;101289.16;5028530;28;20382;-78
2024/01/06 10:58:46;;;;;;;11.35;9.00;;;;;;;0.54;100.00;101286.25;5018698;28;20494;-78
2024/01/06 11:01:14;;;;;;;9.77;8.77;;;;;;;0.47;100.00;101295.41;5035138;28;20051;-79
2024/01/06 11:03:48;;;;;;;11.50;9.13;;;;;;;0.43;100.00;101287.41;5030978;28;20053;-78
2024/01/06 11:06:18;;;;;;;10.40;9.00;;;;;;;0.45;100.00;101291.84;5026150;28;20166;-78
2024/01/06 11:09:04;;;;;;;10.75;9.07;;;;;;;0.46;100.00;101292.78;4986861;28;20049;-78
2024/01/06 11:11:33;;;;;;;10.55;8.55;;;;;;;0.46;100.00;101297.97;5018661;28;20454;-78
2024/01/06 11:14:24;;;;;;;42.60;11.60;;;;;;;0.47;100.00;101291.94;5044322;28;20045;-79
2024/01/06 11:16:53;;;;;;;10.75;8.73;;;;;;;0.50;100.00;101299.88;5036263;28;20137;-77